Celebrity Equinox — 9HXD9 — position and weather

sailwx.info

Track history (hours):
 
Tides and Currents Weather Stations Pressure Air Temp Water Temp Dewpoint Dewpoint Depression Visibility Wind Speed Wind Dir Waves Ship Positions

Celebrity Equinox

Last reported at 2014-Oct-31 00:27 UTC. Time now 2014-Oct-31 08:36 UTC.
Position N 35°57' W 005°35'.

Length 317 m; draft 9 m.

Type: Ship. MMSI: 249667000.

Date/timePositionNaut miles runAvg speedWind from/ knotsBaromVisibWave heightAir tempDewpointWater temp
2014-Oct-31 00:27N 35°57' W 005°35'1618.5
2014-Oct-30 23:33N 36°03' W 005°16'233 8.9
2014-Oct-29 21:33N 37°25' W 000°45'1818.1
2014-Oct-29 20:33N 37°39' W 000°30'2318.6
2014-Oct-29 19:20N 37°57' W 000°12'8815.2
2014-Oct-29 13:30N 39°26' W 000°17'2 2.3
2014-Oct-29 12:31N 39°28' W 000°18'0 0.0
2014-Oct-29 11:31N 39°28' W 000°18'0 0.0
2014-Oct-29 10:33N 39°28' W 000°18'0 0.0
2014-Oct-29 09:33N 39°28' W 000°18'0 0.0
2014-Oct-29 08:33N 39°28' W 000°18'0 0.0
2014-Oct-29 07:32N 39°28' W 000°18'0 0.0
2014-Oct-29 06:32N 39°28' W 000°18'1 0.6
2014-Oct-29 05:33N 39°27' W 000°17'6 5.7
2014-Oct-29 04:33N 39°25' W 000°11'10211.0
2014-Oct-28 19:18N 39°24' E 002°01'811.2
2014-Oct-28 18:33N 39°24' E 002°12'1111.1
2014-Oct-28 17:33N 39°24' E 002°27'10 9.8
2014-Oct-28 16:33N 39°30' E 002°37'3 3.4
2014-Oct-28 15:33N 39°33' E 002°38'0 0.0
2014-Oct-28 14:33N 39°33' E 002°38'0 0.0
2014-Oct-28 13:32N 39°33' E 002°38'0 0.0
2014-Oct-28 12:32N 39°33' E 002°38'0 0.0
2014-Oct-28 11:31N 39°33' E 002°38'0 0.0
2014-Oct-28 10:31N 39°33' E 002°38'0 0.0
2014-Oct-28 09:30N 39°33' E 002°38'0 0.0
2014-Oct-28 08:33N 39°33' E 002°38'0 0.0
2014-Oct-28 07:33N 39°33' E 002°38'0 0.1
2014-Oct-28 06:33N 39°33' E 002°38'4 4.2
2014-Oct-28 05:34N 39°29' E 002°37'7 7.4
2014-Oct-28 04:33N 39°25' E 002°29'1010.2
2014-Oct-28 03:34N 39°30' E 002°18'9 9.4
2014-Oct-28 02:33N 39°39' E 002°15'10 9.9
2014-Oct-28 01:33N 39°49' E 002°14'1010.0
2014-Oct-28 00:34N 39°59' E 002°14'1010.0
2014-Oct-27 23:33N 40°09' E 002°13'1010.0
2014-Oct-27 22:33N 40°19' E 002°13'1010.1
2014-Oct-27 21:33N 40°29' E 002°13'1010.2
2014-Oct-27 20:33N 40°39' E 002°12'1010.3
2014-Oct-27 19:34N 40°49' E 002°12'1010.4
2014-Oct-27 18:33N 40°60' E 002°11'14 0.9
2014-Oct-27 03:23N 41°11' E 002°22'1417.6
2014-Oct-27 02:33N 41°05' E 002°39'1817.6
2014-Oct-27 01:34N 40°57' E 003°00'1817.5
2014-Oct-27 00:34N 40°49' E 003°21'7818.5
2014-Oct-26 20:20N 40°10' E 004°50'20317.2
2014-Oct-26 08:33N 38°46' E 008°49'1817.7
2014-Oct-26 07:32N 38°45' E 009°12'1817.8
2014-Oct-26 06:33N 38°44' E 009°34'14917.9
2014-Oct-25 22:14N 38°28' E 012°44'1217.9
2014-Oct-25 21:33N 38°27' E 012°60'1818.1
2014-Oct-25 20:33N 38°25' E 013°23'1818.0
2014-Oct-25 19:33N 38°24' E 013°46'1918.3
2014-Oct-25 18:32N 38°21' E 014°09'3718.3
2014-Oct-25 16:31N 38°19' E 014°56'1717.6
2014-Oct-25 15:33N 38°20' E 015°18'1611.6
2014-Oct-25 14:09N 38°14' E 015°38'1014.6
2014-Oct-25 13:27N 38°04' E 015°36'  
Track history (hours):
 
Tides and Currents Weather Stations Pressure Air Temp Water Temp Dewpoint Dewpoint Depression Visibility Wind Speed Wind Dir Waves Ship Positions

Celebrity Equinox

Last reported at 2014-Oct-31 00:27 UTC. Time now 2014-Oct-31 08:36 UTC.
Position N 35°57' W 005°35'.

Length 317 m; draft 9 m.

Type: Ship. MMSI: 249667000.

Date/timePositionNaut miles runAvg speedWind from/ knotsBaromVisibWave heightAir tempDewpointWater temp
2014-Oct-31 00:27N 35°57' W 005°35'1618.5
2014-Oct-30 23:33N 36°03' W 005°16'233 8.9
2014-Oct-29 21:33N 37°25' W 000°45'1818.1
2014-Oct-29 20:33N 37°39' W 000°30'2318.6
2014-Oct-29 19:20N 37°57' W 000°12'8815.2
2014-Oct-29 13:30N 39°26' W 000°17'2 2.3
2014-Oct-29 12:31N 39°28' W 000°18'0 0.0
2014-Oct-29 11:31N 39°28' W 000°18'0 0.0
2014-Oct-29 10:33N 39°28' W 000°18'0 0.0
2014-Oct-29 09:33N 39°28' W 000°18'0 0.0
2014-Oct-29 08:33N 39°28' W 000°18'0 0.0
2014-Oct-29 07:32N 39°28' W 000°18'0 0.0
2014-Oct-29 06:32N 39°28' W 000°18'1 0.6
2014-Oct-29 05:33N 39°27' W 000°17'6 5.7
2014-Oct-29 04:33N 39°25' W 000°11'10211.0
2014-Oct-28 19:18N 39°24' E 002°01'811.2
2014-Oct-28 18:33N 39°24' E 002°12'1111.1
2014-Oct-28 17:33N 39°24' E 002°27'10 9.8
2014-Oct-28 16:33N 39°30' E 002°37'3 3.4
2014-Oct-28 15:33N 39°33' E 002°38'0 0.0
2014-Oct-28 14:33N 39°33' E 002°38'0 0.0
2014-Oct-28 13:32N 39°33' E 002°38'0 0.0
2014-Oct-28 12:32N 39°33' E 002°38'0 0.0
2014-Oct-28 11:31N 39°33' E 002°38'0 0.0
2014-Oct-28 10:31N 39°33' E 002°38'0 0.0
2014-Oct-28 09:30N 39°33' E 002°38'0 0.0
2014-Oct-28 08:33N 39°33' E 002°38'0 0.0
2014-Oct-28 07:33N 39°33' E 002°38'0 0.1
2014-Oct-28 06:33N 39°33' E 002°38'4 4.2
2014-Oct-28 05:34N 39°29' E 002°37'7 7.4
2014-Oct-28 04:33N 39°25' E 002°29'1010.2
2014-Oct-28 03:34N 39°30' E 002°18'9 9.4
2014-Oct-28 02:33N 39°39' E 002°15'10 9.9
2014-Oct-28 01:33N 39°49' E 002°14'1010.0
2014-Oct-28 00:34N 39°59' E 002°14'1010.0
2014-Oct-27 23:33N 40°09' E 002°13'1010.0
2014-Oct-27 22:33N 40°19' E 002°13'1010.1
2014-Oct-27 21:33N 40°29' E 002°13'1010.2
2014-Oct-27 20:33N 40°39' E 002°12'1010.3
2014-Oct-27 19:34N 40°49' E 002°12'1010.4
2014-Oct-27 18:33N 40°60' E 002°11'14 0.9
2014-Oct-27 03:23N 41°11' E 002°22'1417.6
2014-Oct-27 02:33N 41°05' E 002°39'1817.6
2014-Oct-27 01:34N 40°57' E 003°00'1817.5
2014-Oct-27 00:34N 40°49' E 003°21'7818.5
2014-Oct-26 20:20N 40°10' E 004°50'20317.2
2014-Oct-26 08:33N 38°46' E 008°49'1817.7
2014-Oct-26 07:32N 38°45' E 009°12'1817.8
2014-Oct-26 06:33N 38°44' E 009°34'14917.9
2014-Oct-25 22:14N 38°28' E 012°44'1217.9
2014-Oct-25 21:33N 38°27' E 012°60'1818.1
2014-Oct-25 20:33N 38°25' E 013°23'1818.0
2014-Oct-25 19:33N 38°24' E 013°46'1918.3
2014-Oct-25 18:32N 38°21' E 014°09'3718.3
2014-Oct-25 16:31N 38°19' E 014°56'1717.6
2014-Oct-25 15:33N 38°20' E 015°18'1611.6
2014-Oct-25 14:09N 38°14' E 015°38'1014.6
2014-Oct-25 13:27N 38°04' E 015°36'  

Dump ship's entire track history